createdAt,value
2022-12-25T00:01:21.904Z,100873.81
2022-12-25T00:03:48.866Z,100883.61
2022-12-25T00:06:15.562Z,100889.33
2022-12-25T00:08:42.448Z,100888.27
2022-12-25T00:11:13.243Z,100885.91
2022-12-25T00:13:40.595Z,100884.31
2022-12-25T00:16:08.903Z,100889.17
2022-12-25T00:18:35.643Z,100890.08
2022-12-25T00:21:05.494Z,100894.92
2022-12-25T00:23:32.953Z,100888.63
2022-12-25T00:25:59.365Z,100887.21
2022-12-25T00:28:26.080Z,100886.37
2022-12-25T00:30:53.048Z,100882.02
2022-12-25T00:33:19.564Z,100877.81
2022-12-25T00:35:57.668Z,100878.25
2022-12-25T00:38:24.189Z,100879.14
2022-12-25T00:40:50.666Z,100888.34
2022-12-25T00:43:17.312Z,100895.80
2022-12-25T00:45:44.061Z,100901.91
2022-12-25T00:48:10.509Z,100901.19
2022-12-25T00:50:40.049Z,100905.75
2022-12-25T00:53:06.501Z,100909.91
2022-12-25T00:55:32.879Z,100920.63
2022-12-25T00:57:59.246Z,100926.39
2022-12-25T01:00:25.670Z,100932.42
2022-12-25T01:02:52.293Z,100934.65
2022-12-25T01:05:18.811Z,100932.73
2022-12-25T01:07:45.182Z,100926.39
2022-12-25T01:10:23.694Z,100923.31
2022-12-25T01:12:51.344Z,100918.08
2022-12-25T01:15:18.695Z,100920.46
2022-12-25T01:17:45.475Z,100925.52
2022-12-25T01:20:13.944Z,100919.24
2022-12-25T01:22:40.444Z,100918.05
2022-12-25T01:25:07.449Z,100919.08
2022-12-25T01:27:33.807Z,100924.58
2022-12-25T01:30:00.632Z,100930.15
2022-12-25T01:32:27.165Z,100926.13
2022-12-25T01:34:56.190Z,100926.45
2022-12-25T01:37:24.664Z,100923.27
2022-12-25T01:39:51.421Z,100921.46
2022-12-25T01:42:20.412Z,100928.65
2022-12-25T01:44:46.822Z,100925.93
2022-12-25T01:47:15.174Z,100923.66
2022-12-25T01:49:44.199Z,100917.71
2022-12-25T01:52:24.775Z,100912.94
2022-12-25T01:55:06.235Z,100920.50
2022-12-25T01:57:36.609Z,100925.77
2022-12-25T02:00:05.993Z,100927.00
2022-12-25T02:02:33.210Z,100918.17
2022-12-25T02:05:25.048Z,100916.63
2022-12-25T02:07:52.823Z,100923.46
2022-12-25T02:10:19.357Z,100933.52
2022-12-25T02:12:47.621Z,100935.66
2022-12-25T02:15:18.897Z,100933.49
2022-12-25T02:18:08.967Z,100944.60
2022-12-25T02:21:29.712Z,100942.89
2022-12-25T02:24:30.852Z,100939.71
2022-12-25T02:27:09.337Z,100943.45
2022-12-25T02:29:48.018Z,100929.27
2022-12-25T02:32:25.765Z,100928.66
2022-12-25T02:35:00.834Z,100929.09
2022-12-25T02:37:40.165Z,100934.83
2022-12-25T02:40:53.154Z,100942.95
2022-12-25T02:43:44.865Z,100945.77
2022-12-25T02:46:34.551Z,100944.17
2022-12-25T02:49:24.476Z,100938.19
2022-12-25T02:52:18.236Z,100929.38
2022-12-25T02:55:09.524Z,100931.91
2022-12-25T02:58:02.169Z,100930.23
2022-12-25T03:00:50.221Z,100929.46
2022-12-25T03:03:36.925Z,100925.07
2022-12-25T03:06:23.585Z,100923.54
2022-12-25T03:08:54.732Z,100925.67
2022-12-25T03:11:33.480Z,100927.23
2022-12-25T03:14:26.788Z,100930.39
2022-12-25T03:16:56.408Z,100924.80
2022-12-25T03:19:47.046Z,100923.55
2022-12-25T03:22:38.124Z,100915.80
2022-12-25T03:25:23.824Z,100911.71
2022-12-25T03:27:54.923Z,100908.86
2022-12-25T03:30:42.625Z,100911.80
2022-12-25T03:33:43.827Z,100914.56
2022-12-25T03:36:18.263Z,100922.63
2022-12-25T03:39:31.685Z,100926.92
2022-12-25T03:42:20.679Z,100924.71
2022-12-25T03:45:05.073Z,100922.54
2022-12-25T03:47:58.325Z,100920.16
2022-12-25T03:50:57.122Z,100924.27
2022-12-25T03:53:48.793Z,100927.36
2022-12-25T03:56:36.950Z,100926.01
2022-12-25T03:59:24.012Z,100921.27
2022-12-25T04:02:10.626Z,100921.98
2022-12-25T04:04:56.543Z,100927.57
2022-12-25T04:07:41.787Z,100933.26
2022-12-25T04:10:27.373Z,100926.19
2022-12-25T04:13:12.627Z,100925.34
2022-12-25T04:15:57.797Z,100922.27
2022-12-25T04:18:42.948Z,100915.11
2022-12-25T04:21:28.339Z,100912.23
2022-12-25T04:24:13.555Z,100912.98
2022-12-25T04:26:58.640Z,100913.02
2022-12-25T04:29:43.579Z,100916.66
2022-12-25T04:32:28.804Z,100912.70
2022-12-25T04:35:13.640Z,100911.06
2022-12-25T04:37:40.101Z,100906.66
2022-12-25T04:40:06.962Z,100897.85
2022-12-25T04:42:33.489Z,100897.44
2022-12-25T04:44:59.878Z,100903.07
2022-12-25T04:47:26.524Z,100902.92
2022-12-25T04:49:52.973Z,100906.67
2022-12-25T04:52:19.427Z,100905.00
2022-12-25T04:54:45.831Z,100894.85
2022-12-25T04:57:12.455Z,100880.27
2022-12-25T04:59:38.939Z,100890.45
2022-12-25T05:02:05.592Z,100900.23
2022-12-25T05:04:32.228Z,100899.73
2022-12-25T05:06:58.666Z,100902.39
2022-12-25T05:09:25.970Z,100906.39
2022-12-25T05:11:52.753Z,100901.80
2022-12-25T05:14:19.200Z,100895.27
2022-12-25T05:16:45.649Z,100886.78
2022-12-25T05:19:12.064Z,100883.64
2022-12-25T05:21:38.478Z,100888.25
2022-12-25T05:24:05.202Z,100883.20
2022-12-25T05:26:31.601Z,100880.49
2022-12-25T05:28:59.259Z,100876.39
2022-12-25T05:31:25.693Z,100872.52
2022-12-25T05:33:52.699Z,100870.06
2022-12-25T05:36:19.246Z,100865.73
2022-12-25T05:38:45.744Z,100864.61
2022-12-25T05:41:12.324Z,100867.52
2022-12-25T05:43:38.735Z,100871.13
2022-12-25T05:46:07.849Z,100870.08
2022-12-25T05:48:36.626Z,100864.52
2022-12-25T05:51:08.118Z,100858.13
2022-12-25T05:53:35.141Z,100858.31
2022-12-25T05:56:04.079Z,100855.21
2022-12-25T05:58:32.111Z,100857.14
2022-12-25T06:00:58.768Z,100855.86
2022-12-25T06:03:25.914Z,100857.65
2022-12-25T06:05:52.847Z,100856.29
2022-12-25T06:08:19.411Z,100861.98
2022-12-25T06:10:46.355Z,100854.81
2022-12-25T06:13:13.145Z,100856.56
2022-12-25T06:15:41.159Z,100859.67
2022-12-25T06:18:08.261Z,100849.11
2022-12-25T06:20:35.182Z,100841.86
2022-12-25T06:23:02.051Z,100835.43
2022-12-25T06:25:28.517Z,100831.22
2022-12-25T06:27:54.979Z,100833.36
2022-12-25T06:30:21.833Z,100836.52
2022-12-25T06:32:48.304Z,100840.84
2022-12-25T06:35:14.746Z,100837.94
2022-12-25T06:37:41.241Z,100841.23
2022-12-25T06:40:09.158Z,100849.75
2022-12-25T06:42:35.631Z,100849.23
2022-12-25T06:45:02.057Z,100844.62
2022-12-25T06:47:28.464Z,100842.02
2022-12-25T06:49:54.916Z,100838.84
2022-12-25T06:52:21.353Z,100837.45
2022-12-25T06:54:47.806Z,100831.63
2022-12-25T06:57:14.364Z,100827.93
2022-12-25T06:59:40.788Z,100821.14
2022-12-25T07:02:18.983Z,100816.61
2022-12-25T07:04:46.515Z,100812.69
2022-12-25T07:07:13.450Z,100812.34
2022-12-25T07:09:42.338Z,100817.00
2022-12-25T07:12:23.183Z,100825.55
2022-12-25T07:14:50.301Z,100827.42
2022-12-25T07:17:17.678Z,100826.08
2022-12-25T07:19:45.380Z,100826.09
2022-12-25T07:22:12.676Z,100827.41
2022-12-25T07:24:39.211Z,100832.65
2022-12-25T07:27:06.257Z,100832.02
2022-12-25T07:29:32.665Z,100827.81
2022-12-25T07:31:59.316Z,100827.99
2022-12-25T07:34:26.025Z,100824.08
2022-12-25T07:36:54.873Z,100818.92
2022-12-25T07:39:21.293Z,100821.86
2022-12-25T07:41:47.766Z,100821.67
2022-12-25T07:44:14.565Z,100821.20
2022-12-25T07:46:41.112Z,100824.33
2022-12-25T07:49:07.648Z,100822.77
2022-12-25T07:51:34.148Z,100821.97
2022-12-25T07:54:00.721Z,100812.96
2022-12-25T07:56:27.444Z,100806.31
2022-12-25T07:58:54.235Z,100799.19
2022-12-25T08:01:26.806Z,100793.67
2022-12-25T08:03:59.642Z,100787.14
2022-12-25T08:06:30.352Z,100777.70
2022-12-25T08:09:08.612Z,100768.72
2022-12-25T08:11:35.951Z,100765.23
2022-12-25T08:14:06.546Z,100766.72
2022-12-25T08:16:33.119Z,100767.61
2022-12-25T08:18:59.801Z,100766.16
2022-12-25T08:21:26.327Z,100763.98
2022-12-25T08:23:52.925Z,100764.17
2022-12-25T08:26:22.079Z,100767.07
2022-12-25T08:28:49.309Z,100770.70
2022-12-25T08:31:17.521Z,100772.30
2022-12-25T08:33:44.804Z,100783.68
2022-12-25T08:36:12.446Z,100790.40
2022-12-25T08:38:40.133Z,100790.34
2022-12-25T08:41:07.490Z,100797.08
2022-12-25T08:43:34.214Z,100804.70
2022-12-25T08:46:00.932Z,100806.92
2022-12-25T08:48:27.506Z,100813.00
2022-12-25T08:50:54.313Z,100819.60
2022-12-25T08:53:21.793Z,100820.73
2022-12-25T08:55:48.577Z,100824.85
2022-12-25T08:58:16.340Z,100825.01
2022-12-25T09:00:42.976Z,100821.99
2022-12-25T09:03:09.428Z,100820.36
2022-12-25T09:05:36.823Z,100821.30
2022-12-25T09:08:03.380Z,100817.06
2022-12-25T09:10:29.992Z,100810.56
2022-12-25T09:12:56.482Z,100800.96
2022-12-25T09:15:22.874Z,100797.51
2022-12-25T09:17:49.278Z,100789.44
2022-12-25T09:20:15.668Z,100784.17
2022-12-25T09:22:42.125Z,100778.70
2022-12-25T09:25:09.016Z,100781.98
2022-12-25T09:27:35.614Z,100781.73
2022-12-25T09:30:03.387Z,100785.88
2022-12-25T09:32:29.890Z,100793.98
2022-12-25T09:34:56.249Z,100799.09
2022-12-25T09:37:22.604Z,100810.42
2022-12-25T09:39:49.006Z,100820.61
2022-12-25T09:42:24.066Z,100821.58
2022-12-25T09:44:56.721Z,100813.75
2022-12-25T09:47:27.789Z,100808.64
2022-12-25T09:49:57.202Z,100811.89
2022-12-25T09:52:30.287Z,100808.72
2022-12-25T09:55:02.514Z,100812.83
2022-12-25T09:57:29.204Z,100796.70
2022-12-25T09:59:56.125Z,100789.52
2022-12-25T10:02:37.909Z,100795.67
2022-12-25T10:05:16.410Z,100803.20
2022-12-25T10:08:16.994Z,100799.38
2022-12-25T10:10:43.439Z,100796.00
2022-12-25T10:13:47.461Z,100787.25
2022-12-25T10:16:44.911Z,100766.02
2022-12-25T10:19:29.791Z,100744.59
2022-12-25T10:22:01.313Z,100734.90
2022-12-25T10:24:44.469Z,100731.43
2022-12-25T10:27:19.123Z,100723.41
2022-12-25T10:29:49.841Z,100716.89
2022-12-25T10:32:17.477Z,100706.34
2022-12-25T10:34:47.029Z,100704.70
2022-12-25T10:37:13.547Z,100702.82
2022-12-25T10:39:46.303Z,100707.61
2022-12-25T10:42:42.750Z,100696.50
2022-12-25T10:45:12.557Z,100696.62
2022-12-25T10:47:42.837Z,100701.67
2022-12-25T10:50:18.032Z,100699.77
2022-12-25T10:53:04.891Z,100694.77
2022-12-25T10:55:32.879Z,100691.02
2022-12-25T10:58:02.808Z,100698.20
2022-12-25T11:00:32.418Z,100712.36
2022-12-25T11:03:00.169Z,100722.36
2022-12-25T11:05:31.876Z,100720.73
2022-12-25T11:08:00.887Z,100727.24
2022-12-25T11:10:32.760Z,100726.13
2022-12-25T11:13:01.425Z,100722.96
2022-12-25T11:15:33.714Z,100724.27
2022-12-25T11:18:00.680Z,100734.80
2022-12-25T11:20:30.684Z,100725.20
2022-12-25T11:22:57.467Z,100719.91
2022-12-25T11:25:28.395Z,100712.16
2022-12-25T11:28:07.071Z,100699.55
2022-12-25T11:30:35.115Z,100694.90
2022-12-25T11:33:10.251Z,100696.37
2022-12-25T11:36:06.225Z,100691.67
2022-12-25T11:38:32.720Z,100688.95
2022-12-25T11:41:02.638Z,100686.45
2022-12-25T11:43:44.459Z,100697.05
2022-12-25T11:46:39.124Z,100706.05
2022-12-25T11:49:10.920Z,100697.98
2022-12-25T11:51:41.730Z,100690.16
2022-12-25T11:54:33.715Z,100680.22
2022-12-25T11:57:04.512Z,100675.76
2022-12-25T11:59:38.318Z,100672.54
2022-12-25T12:02:36.155Z,100665.20
2022-12-25T12:05:22.394Z,100646.71
2022-12-25T12:07:57.277Z,100633.94
2022-12-25T12:10:32.755Z,100627.19
2022-12-25T12:13:44.028Z,100620.53
2022-12-25T12:16:10.661Z,100623.33
2022-12-25T12:18:37.282Z,100614.98
2022-12-25T12:21:21.296Z,100608.00
2022-12-25T12:24:01.857Z,100601.88
2022-12-25T12:26:32.460Z,100599.02
2022-12-25T12:29:01.350Z,100598.01
2022-12-25T12:31:59.913Z,100591.71
2022-12-25T12:34:30.546Z,100589.98
2022-12-25T12:37:04.026Z,100587.45
2022-12-25T12:39:36.495Z,100584.00
2022-12-25T12:42:13.834Z,100582.68
2022-12-25T12:44:40.514Z,100580.10
2022-12-25T12:47:26.369Z,100577.40
2022-12-25T12:50:01.476Z,100566.19
2022-12-25T12:52:35.580Z,100566.78
2022-12-25T12:55:13.725Z,100562.88
2022-12-25T12:57:41.061Z,100552.36
2022-12-25T13:00:15.961Z,100543.40
2022-12-25T13:02:48.442Z,100539.53
2022-12-25T13:05:34.658Z,100539.46
2022-12-25T13:08:14.331Z,100539.73
2022-12-25T13:10:46.673Z,100533.98
2022-12-25T13:13:24.628Z,100531.14
2022-12-25T13:15:52.188Z,100533.00
2022-12-25T13:18:18.773Z,100529.83
2022-12-25T13:20:54.835Z,100528.29
2022-12-25T13:23:24.419Z,100530.16
2022-12-25T13:26:12.743Z,100532.94
2022-12-25T13:28:39.143Z,100531.82
2022-12-25T13:31:11.883Z,100525.96
2022-12-25T13:33:39.036Z,100530.15
2022-12-25T13:36:11.296Z,100529.98
2022-12-25T13:38:42.549Z,100531.48
2022-12-25T13:41:27.518Z,100524.64
2022-12-25T13:43:58.361Z,100519.88
2022-12-25T13:46:27.458Z,100504.42
2022-12-25T13:49:00.201Z,100495.55
2022-12-25T13:51:28.356Z,100492.86
2022-12-25T13:54:05.883Z,100491.92
2022-12-25T13:56:34.298Z,100482.69
2022-12-25T13:59:00.823Z,100475.15
2022-12-25T14:01:28.633Z,100465.17
2022-12-25T14:03:55.348Z,100468.89
2022-12-25T14:06:25.614Z,100466.27
2022-12-25T14:08:54.500Z,100462.64
2022-12-25T14:11:23.183Z,100460.70
2022-12-25T14:13:52.874Z,100455.98
2022-12-25T14:16:21.063Z,100447.27
2022-12-25T14:18:59.679Z,100437.38
2022-12-25T14:21:40.953Z,100432.95
2022-12-25T14:24:27.475Z,100427.36
2022-12-25T14:27:00.538Z,100413.95
2022-12-25T14:29:34.484Z,100404.85
2022-12-25T14:32:04.992Z,100395.95
2022-12-25T14:34:32.445Z,100372.55
2022-12-25T14:36:59.985Z,100370.24
2022-12-25T14:39:32.608Z,100369.45
2022-12-25T14:42:00.047Z,100386.85
2022-12-25T14:44:32.782Z,100399.11
2022-12-25T14:47:05.126Z,100400.13
2022-12-25T14:49:32.546Z,100401.52
2022-12-25T14:51:59.196Z,100408.35
2022-12-25T14:54:26.585Z,100410.58
2022-12-25T14:56:55.985Z,100411.23
2022-12-25T14:59:26.449Z,100408.68
2022-12-25T15:01:59.187Z,100404.09
2022-12-25T15:04:26.959Z,100401.55
2022-12-25T15:07:07.181Z,100401.91
2022-12-25T15:09:35.912Z,100394.35
2022-12-25T15:12:02.414Z,100392.67
2022-12-25T15:14:31.699Z,100393.52
2022-12-25T15:17:00.897Z,100379.77
2022-12-25T15:19:37.726Z,100380.23
2022-12-25T15:22:05.129Z,100372.67
2022-12-25T15:24:31.606Z,100371.09
2022-12-25T15:27:00.170Z,100368.88
2022-12-25T15:29:52.145Z,100370.92
2022-12-25T15:32:18.956Z,100370.56
2022-12-25T15:34:47.089Z,100370.27
2022-12-25T15:37:14.306Z,100372.71
2022-12-25T15:39:40.878Z,100370.98
2022-12-25T15:42:21.505Z,100361.96
2022-12-25T15:44:47.919Z,100358.09
2022-12-25T15:47:16.287Z,100356.80
2022-12-25T15:49:43.313Z,100346.27
2022-12-25T15:52:15.303Z,100339.18
2022-12-25T15:54:41.676Z,100340.77
2022-12-25T15:57:17.174Z,100335.46
2022-12-25T15:59:43.564Z,100332.35
2022-12-25T16:02:21.284Z,100330.86
2022-12-25T16:04:48.941Z,100329.83
2022-12-25T16:07:19.551Z,100323.88
2022-12-25T16:09:46.320Z,100322.21
2022-12-25T16:12:13.010Z,100324.77
2022-12-25T16:14:39.403Z,100324.34
2022-12-25T16:17:05.952Z,100325.42
2022-12-25T16:19:32.430Z,100323.19
2022-12-25T16:21:58.888Z,100325.77
2022-12-25T16:24:25.340Z,100324.84
2022-12-25T16:26:51.713Z,100314.90
2022-12-25T16:29:18.146Z,100307.55
2022-12-25T16:31:44.605Z,100304.59
2022-12-25T16:34:11.049Z,100300.94
2022-12-25T16:36:37.520Z,100300.89
2022-12-25T16:39:04.946Z,100297.69
2022-12-25T16:41:32.268Z,100297.50
2022-12-25T16:43:58.690Z,100286.05
2022-12-25T16:46:25.170Z,100280.99
2022-12-25T16:48:51.685Z,100273.98
2022-12-25T16:51:20.485Z,100275.31
2022-12-25T16:53:47.853Z,100273.83
2022-12-25T16:56:17.074Z,100275.05
2022-12-25T16:58:46.591Z,100265.59
2022-12-25T17:01:16.147Z,100259.58
2022-12-25T17:03:43.056Z,100260.28
2022-12-25T17:06:28.314Z,100262.86
2022-12-25T17:08:58.481Z,100258.67
2022-12-25T17:11:29.548Z,100251.92
2022-12-25T17:13:57.065Z,100248.04
2022-12-25T17:16:27.189Z,100245.69
2022-12-25T17:19:01.225Z,100231.48
2022-12-25T17:21:29.203Z,100233.21
2022-12-25T17:24:02.961Z,100229.64
2022-12-25T17:26:31.122Z,100228.02
2022-12-25T17:28:58.435Z,100232.60
2022-12-25T17:31:24.940Z,100230.34
2022-12-25T17:33:51.556Z,100227.84
2022-12-25T17:36:20.120Z,100230.21
2022-12-25T17:38:47.702Z,100224.38
2022-12-25T17:41:15.900Z,100217.69
2022-12-25T17:43:44.189Z,100208.21
2022-12-25T17:46:22.162Z,100205.33
2022-12-25T17:48:52.116Z,100204.58
2022-12-25T17:51:21.982Z,100196.79
2022-12-25T17:53:51.874Z,100196.23
2022-12-25T17:56:19.805Z,100189.95
2022-12-25T17:58:55.150Z,100185.85
2022-12-25T18:01:23.560Z,100184.31
2022-12-25T18:03:50.215Z,100178.71
2022-12-25T18:06:20.802Z,100179.24
2022-12-25T18:08:48.061Z,100186.27
2022-12-25T18:11:17.651Z,100183.42
2022-12-25T18:13:48.211Z,100179.25
2022-12-25T18:16:14.811Z,100173.36
2022-12-25T18:18:43.139Z,100169.96
2022-12-25T18:21:14.315Z,100167.17
2022-12-25T18:23:40.766Z,100165.46
2022-12-25T18:26:08.924Z,100165.04
2022-12-25T18:28:35.611Z,100167.27
2022-12-25T18:31:02.168Z,100157.59
2022-12-25T18:33:28.651Z,100152.76
2022-12-25T18:36:00.137Z,100147.43
2022-12-25T18:38:27.388Z,100144.09
2022-12-25T18:40:54.423Z,100138.65
2022-12-25T18:43:20.862Z,100128.13
2022-12-25T18:46:07.507Z,100125.03
2022-12-25T18:48:35.138Z,100133.71
2022-12-25T18:51:05.562Z,100136.01
2022-12-25T18:53:32.724Z,100139.40
2022-12-25T18:56:07.317Z,100137.20
2022-12-25T18:58:34.523Z,100133.64
2022-12-25T19:01:01.108Z,100133.55
2022-12-25T19:03:29.355Z,100137.68
2022-12-25T19:05:55.752Z,100132.46
2022-12-25T19:08:22.163Z,100128.64
2022-12-25T19:10:48.524Z,100136.16
2022-12-25T19:13:14.994Z,100129.65
2022-12-25T19:15:43.333Z,100123.90
2022-12-25T19:18:10.576Z,100119.73
2022-12-25T19:20:41.176Z,100118.96
2022-12-25T19:23:08.759Z,100123.50
2022-12-25T19:25:35.216Z,100131.00
2022-12-25T19:28:01.613Z,100123.23
2022-12-25T19:30:27.997Z,100111.62
2022-12-25T19:32:54.451Z,100098.38
2022-12-25T19:35:20.873Z,100100.16
2022-12-25T19:37:47.267Z,100101.85
2022-12-25T19:40:13.656Z,100099.48
2022-12-25T19:42:40.065Z,100095.04
2022-12-25T19:45:06.905Z,100083.80
2022-12-25T19:47:33.317Z,100086.77
2022-12-25T19:50:03.145Z,100086.25
2022-12-25T19:52:30.043Z,100080.31
2022-12-25T19:54:56.519Z,100080.30
2022-12-25T19:57:22.941Z,100076.45
2022-12-25T19:59:49.705Z,100078.33
2022-12-25T20:02:16.214Z,100078.72
2022-12-25T20:04:44.985Z,100072.16
2022-12-25T20:07:11.504Z,100078.83
2022-12-25T20:09:37.888Z,100072.61
2022-12-25T20:12:04.561Z,100074.58
2022-12-25T20:14:30.963Z,100075.08
2022-12-25T20:16:57.497Z,100072.74
2022-12-25T20:19:24.388Z,100073.52
2022-12-25T20:21:50.828Z,100074.67
2022-12-25T20:24:17.343Z,100080.38
2022-12-25T20:26:47.697Z,100083.19
2022-12-25T20:29:14.389Z,100078.56
2022-12-25T20:31:40.910Z,100075.70
2022-12-25T20:34:10.816Z,100078.54
2022-12-25T20:36:38.334Z,100080.20
2022-12-25T20:39:10.856Z,100087.16
2022-12-25T20:41:37.973Z,100084.32
2022-12-25T20:44:06.411Z,100085.66
2022-12-25T20:46:32.903Z,100082.14
2022-12-25T20:49:01.669Z,100085.52
2022-12-25T20:51:28.274Z,100089.34
2022-12-25T20:53:55.294Z,100093.48
2022-12-25T20:56:24.502Z,100093.45
2022-12-25T20:58:59.549Z,100092.30
2022-12-25T21:01:27.840Z,100099.50
2022-12-25T21:03:55.448Z,100106.88
2022-12-25T21:06:22.399Z,100109.71
2022-12-25T21:08:49.168Z,100109.73
2022-12-25T21:11:16.749Z,100111.13
2022-12-25T21:13:45.206Z,100113.90
2022-12-25T21:16:15.701Z,100114.08
2022-12-25T21:18:42.684Z,100111.20
2022-12-25T21:21:09.136Z,100115.23
2022-12-25T21:23:37.986Z,100124.04
2022-12-25T21:26:18.923Z,100125.61
2022-12-25T21:28:49.506Z,100115.23
2022-12-25T21:31:16.919Z,100121.64
2022-12-25T21:33:52.738Z,100123.15
2022-12-25T21:36:29.931Z,100128.83
2022-12-25T21:38:58.856Z,100129.02
2022-12-25T21:41:27.079Z,100129.18
2022-12-25T21:43:54.143Z,100129.17
2022-12-25T21:46:21.168Z,100124.80
2022-12-25T21:48:47.840Z,100116.41
2022-12-25T21:51:34.762Z,100118.05
2022-12-25T21:54:03.769Z,100118.14
2022-12-25T21:56:32.035Z,100113.14
2022-12-25T21:59:00.294Z,100116.86
2022-12-25T22:01:27.765Z,100114.88
2022-12-25T22:03:54.316Z,100114.41
2022-12-25T22:06:39.410Z,100108.75
2022-12-25T22:09:13.795Z,100109.05
2022-12-25T22:11:58.795Z,100105.79
2022-12-25T22:14:51.058Z,100113.05
2022-12-25T22:17:41.415Z,100110.71
2022-12-25T22:20:10.682Z,100105.06
2022-12-25T22:22:37.141Z,100104.06
2022-12-25T22:25:08.923Z,100101.88
2022-12-25T22:27:37.895Z,100112.40
2022-12-25T22:30:13.463Z,100117.73
2022-12-25T22:32:40.192Z,100124.17
2022-12-25T22:35:07.008Z,100126.54
2022-12-25T22:37:33.597Z,100133.24
2022-12-25T22:40:02.162Z,100130.17
2022-12-25T22:42:28.853Z,100130.05
2022-12-25T22:44:55.243Z,100131.89
2022-12-25T22:47:21.810Z,100142.52
2022-12-25T22:49:48.921Z,100140.66
2022-12-25T22:52:15.554Z,100141.27
2022-12-25T22:54:42.086Z,100149.07
2022-12-25T22:57:08.490Z,100156.80
2022-12-25T22:59:35.035Z,100158.73
2022-12-25T23:02:01.542Z,100152.98
2022-12-25T23:04:29.080Z,100147.58
2022-12-25T23:06:55.779Z,100156.20
2022-12-25T23:09:27.488Z,100156.00
2022-12-25T23:11:58.355Z,100147.13
2022-12-25T23:14:41.624Z,100146.26
2022-12-25T23:17:31.545Z,100136.46
2022-12-25T23:20:18.795Z,100137.81
2022-12-25T23:23:05.027Z,100141.02
2022-12-25T23:25:50.521Z,100139.63
2022-12-25T23:28:39.853Z,100149.30
2022-12-25T23:31:06.705Z,100138.87
2022-12-25T23:33:33.203Z,100138.04
2022-12-25T23:35:59.595Z,100143.51
2022-12-25T23:38:26.026Z,100145.80
2022-12-25T23:40:52.750Z,100152.75
2022-12-25T23:43:19.497Z,100147.18
2022-12-25T23:45:45.885Z,100141.88
2022-12-25T23:48:12.420Z,100144.75
2022-12-25T23:50:39.079Z,100147.15
2022-12-25T23:53:05.471Z,100148.01
2022-12-25T23:55:33.417Z,100150.11
2022-12-25T23:57:59.813Z,100138.64
